Portada
METAR-TAF:

METAR-TAF

Aeroports :

San José, Costa Rica

latitud: 09-57N, longitud: 084-09W, altitud: 994 m

Observació

L'informe es va fer fa 10 hores i 9 minuts, a les 00:00 UTC
Vent 8 kt del Est/Sud-Est
Temperatura 22°C
Humitat 78%
Pressió 1015 hPa
Visibilitat 10 km o més
Cel ennuvolat a una alçada de 2000 ft

METAR: MRPV 090000Z 11008KT 9999 BKN020 22/18 A2997 NOSIG

Hora: 04:09 (10:09 UTC)

Pronòstic

L'informe es va fer fa 5 hores i 9 minuts, a les 05:00 UTC
Pronòstic vàlid del 09 a les 06 UTC al 10 a les 06 UTC
Vent 6 kt del Est
Visibilitat 10 km o més
Escasses núvols a una alçada de 3000 ft
Temporalment
l' 09 a les 20 UTC al 09 a les 23 UTC
Vent 6 kt del Oest
Escasses núvols a una alçada de 1500 ft, Cumulonimbus.
tempesta, pluja

TAF: MRPV 090500Z 0906/1006 10006KT 9999 FEW030 TX27/0918Z TN18/0911Z TEMPO 0920/0923 27006KT TSRA FEW015CB

Observacions i pronòstics meteorològics de més de 4000 aeroports (METAR i TAF).

Les estacions disponibles són els punts grocs i vermells al mapa.

Posi el ratolí al punt desitjat per veure el nom de l'estació.

Feu clic per veure les observacions i els pronòstics meteorològics.

Per canviar el mapa: feu clic els botons verds amb una creu de color negre per apropar; al botó verd amb un guió per allunyar la imatge; o en les fletxes verdes per a mapes adjacents.


METAR-TAF: